Strona główna
METAR-TAF:

METAR-TAF

Lotnisko :

Port lotniczy Khon Kaen

Khon Kaen, Tajlandia

Szerokość geograficzna: 16-26N, Długość geograficzna: 102-50E, wysokość: 165 m

Aktualna obserwacja pogody

Raport powstał 53 minut temu, godzina 07:00 UTC
Wiatr 11 kt od wschodnio-północny wschód
Temperatura 31°C
Wilgotność 38%
Ciśnienie 1018 hPa
Widzialność 10 km lub więcej
Rozproszone chmury na wysokości 3000 ft

METAR: VTUK 220700Z 06011KT 9999 SCT030 31/15 Q1018 NOSIG

czas: 14:53 (07:53 UTC)

Prognoza

Raport powstał 2 godziny i 53 minut temu, godzina 05:00 UTC
Prognoza ważna od 22 godzina 06 UTC do 23 godzina 06 UTC
Wiatr 12 kt od wschodnio-północny wschód
Widzialność 10 km lub więcej
Mało chmury na wysokości 3000 ft

TAF: VTUK 220500Z 2206/2306 06012KT 9999 FEW030

Obserwacja i prognoza pogody dla ponad 4000 lotnisk (raport METAR i TAF).

Dostępne stacje oznaczono żółtymi i czerwonymi punktami na mapie.

Najedź kursorem aby zobaczyć nazwę stacji.

Kliknij aby zobaczyć obserwacje i prognozy pogody.

Aby zmienić mapę: kliknij na zielony przycisk z czarnym krzyżykiem, aby powiększyć; na zielony przycisk z myślnikiem, aby pomniejszyć; na zielone strzałki, aby przejść do map sąsiednich.


METAR-TAF: